JAD weather

Perth Jandakot Airport
Perth, Western Australia, Australia

Public forecast

Using degrees Celsius for public forecast. Weather courtesy of forecast.io.

METAR (pilot weather report)

Retrieved 2017/06/28 18:30 UTC (2 minutes ago):

YPJT 281830Z AUTO 05009KT 9999 // NCD 09/04 Q1030 RF00.0/000.0

TAF (pilot weather forecast)

Forecast is more than 6 hours old.

Retrieved 2017/06/28 12:00 UTC (7 hours ago):

TAF YPJT 281034Z 2812/2906 08010KT CAVOK FM290000 03012KT CAVOK